Time;durP1;ratioP1;P1;durP2;ratioP2;P2;SDS_P1;SDS_P2;PMS_P1;PMS_P2;Temp;Humidity;BMP_temperature;BMP_pressure;BME280_temperature;BME280_humidity;BME280_pressure;Samples;Min_cycle;Max_cycle;Signal;HPM_P1;HPM_P2
2022/07/25 00:00:53;;;;;;;4.43;3.40;;;;;;;30.40;39.81;101084.50;5028724;28;20041;-71
2022/07/25 00:03:19;;;;;;;6.35;3.13;;;;;;;30.35;39.89;101082.78;5029260;28;20029;-71
2022/07/25 00:05:44;;;;;;;4.22;3.15;;;;;;;30.37;39.99;101079.69;5009951;28;20386;-69
2022/07/25 00:08:10;;;;;;;6.13;4.22;;;;;;;30.48;39.47;101078.00;5009116;28;20049;-71
2022/07/25 00:10:35;;;;;;;4.43;3.15;;;;;;;30.36;39.62;101069.72;5009106;28;20030;-71
2022/07/25 00:13:00;;;;;;;4.05;3.30;;;;;;;30.44;39.40;101075.16;5008132;28;20057;-72
2022/07/25 00:15:26;;;;;;;9.27;3.10;;;;;;;30.39;39.47;101071.81;5028632;28;20378;-70
2022/07/25 00:17:51;;;;;;;4.47;3.30;;;;;;;30.39;39.38;101075.38;5033255;28;20072;-71
2022/07/25 00:20:17;;;;;;;7.85;3.30;;;;;;;30.12;40.00;101065.03;5033222;28;20524;-72
2022/07/25 00:22:42;;;;;;;4.70;3.28;;;;;;;30.14;40.00;101060.78;5032863;28;20033;-70
2022/07/25 00:25:08;;;;;;;5.40;3.00;;;;;;;30.20;40.06;101061.31;5033114;28;20049;-70
2022/07/25 00:27:33;;;;;;;5.15;3.53;;;;;;;30.27;39.85;101056.78;5033945;28;20029;-71
2022/07/25 00:29:59;;;;;;;4.10;3.53;;;;;;;30.18;40.14;101061.69;5052691;28;20414;-71
2022/07/25 00:32:24;;;;;;;3.47;3.15;;;;;;;30.19;40.10;101051.41;5052913;28;20040;-73
2022/07/25 00:34:50;;;;;;;4.55;3.45;;;;;;;30.18;40.32;101041.47;5053024;28;20045;-70
2022/07/25 00:37:15;;;;;;;4.05;3.50;;;;;;;29.95;40.81;101041.19;5052614;28;20014;-71
2022/07/25 00:39:41;;;;;;;6.13;3.75;;;;;;;29.95;40.64;101035.66;5052143;28;20052;-70
2022/07/25 00:42:06;;;;;;;4.13;3.63;;;;;;;30.07;40.47;101032.03;5052232;28;20037;-71
2022/07/25 00:44:32;;;;;;;6.80;4.10;;;;;;;29.99;40.07;101033.78;5052518;28;20473;-70
2022/07/25 00:46:58;;;;;;;4.07;3.65;;;;;;;29.97;40.96;101029.75;5052188;28;20037;-70
2022/07/25 00:49:24;;;;;;;4.85;3.55;;;;;;;29.99;40.57;101031.03;5052775;28;20029;-71
2022/07/25 00:51:51;;;;;;;4.22;3.83;;;;;;;29.79;40.76;101020.09;5052367;28;20033;-70
2022/07/25 00:54:17;;;;;;;6.10;4.10;;;;;;;29.88;40.39;101027.09;5034884;28;20049;-72
2022/07/25 00:56:42;;;;;;;5.53;4.18;;;;;;;29.84;40.51;101019.84;5032166;28;20509;-71
2022/07/25 00:59:08;;;;;;;5.22;4.00;;;;;;;29.85;40.83;101016.72;5032026;28;20076;-69
2022/07/25 01:01:35;;;;;;;9.45;4.35;;;;;;;29.85;40.48;101005.66;5014310;28;20084;-70
2022/07/25 01:04:01;;;;;;;4.68;4.00;;;;;;;29.82;40.80;101003.56;5027920;28;20026;-73
2022/07/25 01:06:27;;;;;;;6.80;4.80;;;;;;;29.70;41.27;100997.22;5012565;28;20045;-71
2022/07/25 01:08:54;;;;;;;5.10;3.90;;;;;;;29.67;40.89;100995.94;5011993;28;20443;-70
2022/07/25 01:11:20;;;;;;;5.82;5.10;;;;;;;29.68;41.00;100986.47;5012383;28;20073;-70
2022/07/25 01:13:45;;;;;;;4.78;4.18;;;;;;;29.51;41.76;100992.28;5016710;28;20037;-71
2022/07/25 01:16:11;;;;;;;6.50;4.38;;;;;;;29.71;41.26;100987.75;5014659;28;20048;-70
2022/07/25 01:18:37;;;;;;;5.75;4.82;;;;;;;29.68;40.98;100985.69;5031813;28;20045;-69
2022/07/25 01:21:02;;;;;;;8.90;4.85;;;;;;;29.63;41.19;100977.59;5013967;28;20046;-71
2022/07/25 01:23:28;;;;;;;4.60;4.10;;;;;;;29.54;41.35;100988.00;5031427;28;20057;-71
2022/07/25 01:25:53;;;;;;;5.53;4.70;;;;;;;29.66;40.97;100979.69;5031371;28;20034;-70
2022/07/25 01:28:19;;;;;;;7.90;5.20;;;;;;;29.56;41.05;100980.97;5032591;28;20041;-70
2022/07/25 01:30:44;;;;;;;6.63;5.18;;;;;;;29.55;41.34;100973.81;5031767;28;20041;-71
2022/07/25 01:33:15;;;;;;;6.18;5.20;;;;;;;29.59;40.78;100974.72;5031730;28;20037;-70
2022/07/25 01:35:41;;;;;;;7.05;5.45;;;;;;;29.61;41.33;100966.88;5031195;28;20381;-69
2022/07/25 01:38:06;;;;;;;8.10;5.32;;;;;;;29.67;40.64;100971.03;5031227;28;20041;-70
2022/07/25 01:40:32;;;;;;;7.20;5.40;;;;;;;29.64;40.52;100960.63;5031243;28;20034;-70
2022/07/25 01:42:57;;;;;;;13.85;6.20;;;;;;;29.62;40.89;100957.41;5031860;28;20022;-70
2022/07/25 01:45:22;;;;;;;7.15;5.80;;;;;;;29.54;40.76;100954.78;5031089;28;20045;-69
2022/07/25 01:47:48;;;;;;;7.50;5.80;;;;;;;29.55;41.11;100948.06;5031643;28;20037;-70
2022/07/25 01:50:13;;;;;;;10.10;5.80;;;;;;;29.49;40.98;100955.81;5012833;28;20045;-71
2022/07/25 01:52:39;;;;;;;10.20;5.65;;;;;;;29.50;41.26;100954.69;5030958;28;20034;-71
2022/07/25 01:55:05;;;;;;;6.72;5.55;;;;;;;29.38;41.50;100952.75;5031550;28;20469;-71
2022/07/25 01:57:30;;;;;;;6.68;5.38;;;;;;;29.36;41.48;100954.22;5031043;28;20041;-70
2022/07/25 01:59:56;;;;;;;7.95;5.20;;;;;;;29.44;41.05;100948.53;5030770;28;20099;-69
2022/07/25 02:02:21;;;;;;;6.80;6.05;;;;;;;29.45;41.01;100944.63;5031444;28;20512;-72
2022/07/25 02:04:46;;;;;;;10.13;6.35;;;;;;;29.34;41.48;100943.50;5019674;28;20042;-72
2022/07/25 02:07:12;;;;;;;9.25;6.28;;;;;;;29.24;42.01;100934.84;5011603;28;20528;-70
2022/07/25 02:09:38;;;;;;;12.02;5.65;;;;;;;29.33;41.50;100935.53;5011039;28;20034;-71
2022/07/25 02:12:06;;;;;;;7.95;6.32;;;;;;;29.41;41.74;100934.59;5011160;28;20034;-71
2022/07/25 02:14:32;;;;;;;9.02;6.05;;;;;;;29.26;42.18;100929.78;5021748;28;20041;-70
2022/07/25 02:16:57;;;;;;;7.45;5.93;;;;;;;29.35;42.25;100928.50;5030675;28;20474;-71
2022/07/25 02:19:22;;;;;;;8.15;5.45;;;;;;;29.32;42.43;100926.44;5031033;28;20041;-70
2022/07/25 02:21:48;;;;;;;8.02;6.22;;;;;;;29.33;42.40;100922.50;5030879;28;20034;-71
2022/07/25 02:24:13;;;;;;;9.90;6.35;;;;;;;29.33;42.42;100922.50;5030040;28;20429;-70
2022/07/25 02:26:39;;;;;;;9.05;6.47;;;;;;;29.36;41.99;100919.06;5030232;28;20029;-71
2022/07/25 02:29:04;;;;;;;7.32;6.63;;;;;;;29.35;42.53;100916.59;5030342;28;20092;-69
2022/07/25 02:31:30;;;;;;;8.73;6.72;;;;;;;29.28;42.13;100910.88;5030380;28;20061;-70
2022/07/25 02:33:55;;;;;;;7.30;6.35;;;;;;;29.36;42.11;100907.16;5030820;28;20109;-71
2022/07/25 02:36:21;;;;;;;9.98;6.70;;;;;;;29.14;42.72;100893.81;5030693;28;20045;-70
2022/07/25 02:38:46;;;;;;;7.78;6.65;;;;;;;29.17;42.20;100891.16;5029230;28;20545;-71
2022/07/25 02:41:11;;;;;;;17.20;6.97;;;;;;;29.18;42.54;100884.47;5030275;28;20312;-72
2022/07/25 02:43:37;;;;;;;10.07;6.63;;;;;;;29.03;42.91;100882.38;5030231;28;20037;-71
2022/07/25 02:46:02;;;;;;;9.07;7.45;;;;;;;28.93;43.19;100876.50;5030087;28;20030;-71
2022/07/25 02:48:28;;;;;;;8.15;6.55;;;;;;;28.95;43.22;100874.19;5030160;28;20655;-71
2022/07/25 02:50:53;;;;;;;9.05;8.00;;;;;;;29.03;42.41;100870.50;5030105;28;20041;-72
2022/07/25 02:53:18;;;;;;;10.00;7.70;;;;;;;29.12;42.55;100871.19;5030319;28;20489;-72
2022/07/25 02:55:44;;;;;;;10.65;7.68;;;;;;;29.05;42.32;100876.50;5029583;28;20065;-71
2022/07/25 02:58:10;;;;;;;11.27;7.28;;;;;;;29.06;42.83;100867.84;5030514;28;20095;-71
2022/07/25 03:00:38;;;;;;;9.77;7.20;;;;;;;29.05;42.21;100868.97;5029750;28;20488;-71
2022/07/25 03:03:03;;;;;;;8.98;7.90;;;;;;;28.95;42.35;100874.19;5029883;28;20057;-70
2022/07/25 03:05:28;;;;;;;11.90;7.10;;;;;;;28.30;44.90;100886.22;5012985;28;20052;-70
2022/07/25 03:07:54;;;;;;;13.65;8.25;;;;;;;28.14;45.04;100877.78;5009764;28;20101;-70
2022/07/25 03:10:19;;;;;;;9.77;7.97;;;;;;;28.37;45.13;100867.09;5011086;28;20022;-71
2022/07/25 03:12:45;;;;;;;9.43;8.43;;;;;;;28.42;44.38;100864.13;5009801;28;20108;-70
2022/07/25 03:15:12;;;;;;;9.40;7.75;;;;;;;28.42;44.54;100858.59;5026025;28;20084;-71
2022/07/25 03:17:37;;;;;;;11.32;8.60;;;;;;;28.53;44.24;100857.00;5029357;28;20044;-70
2022/07/25 03:20:05;;;;;;;8.60;7.28;;;;;;;28.46;44.21;100862.31;5029551;28;20037;-71
2022/07/25 03:22:31;;;;;;;11.32;8.70;;;;;;;28.67;43.50;100867.75;5012020;28;20120;-70
2022/07/25 03:24:56;;;;;;;8.90;8.00;;;;;;;28.56;43.51;100854.38;5029727;28;20377;-70
2022/07/25 03:27:22;;;;;;;9.50;7.18;;;;;;;28.49;44.21;100848.59;5047252;28;20041;-71
2022/07/25 03:29:47;;;;;;;9.68;7.18;;;;;;;28.56;43.89;100843.31;5049615;28;20041;-71
2022/07/25 03:32:12;;;;;;;8.80;7.90;;;;;;;28.76;43.46;100847.09;5049193;28;20044;-69
2022/07/25 03:34:38;;;;;;;10.07;7.78;;;;;;;28.69;43.55;100852.44;5049169;28;20037;-71
2022/07/25 03:37:04;;;;;;;11.88;7.35;;;;;;;28.69;43.85;100851.63;5049710;28;20017;-71
2022/07/25 03:39:30;;;;;;;11.48;9.35;;;;;;;28.61;43.22;100850.59;5048836;28;20051;-71
2022/07/25 03:41:55;;;;;;;9.30;8.00;;;;;;;28.57;44.34;100852.41;5041450;28;20035;-71
2022/07/25 03:44:22;;;;;;;8.25;7.15;;;;;;;28.54;43.57;100842.00;5029653;28;20045;-72
2022/07/25 03:46:48;;;;;;;8.82;6.88;;;;;;;28.50;43.95;100841.88;5029571;28;20033;-70
2022/07/25 03:49:13;;;;;;;10.38;8.05;;;;;;;28.47;44.43;100845.34;5029395;28;20087;-75
2022/07/25 03:51:39;;;;;;;9.30;7.70;;;;;;;28.59;43.98;100845.41;5028907;28;20048;-70
2022/07/25 03:54:05;;;;;;;13.00;7.93;;;;;;;28.63;43.53;100838.03;5028949;28;20034;-71
2022/07/25 03:56:36;;;;;;;9.65;7.97;;;;;;;28.63;43.88;100834.44;5028809;28;20049;-72
2022/07/25 03:59:06;;;;;;;12.23;8.25;;;;;;;28.56;44.13;100829.47;5028984;28;20034;-70
2022/07/25 04:01:32;;;;;;;9.40;8.43;;;;;;;28.51;43.90;100824.16;5027563;28;20470;-71
2022/07/25 04:03:58;;;;;;;10.63;8.38;;;;;;;28.65;43.53;100818.31;5011577;28;20038;-70
2022/07/25 04:06:24;;;;;;;10.30;8.55;;;;;;;28.53;44.30;100821.03;5029023;28;20405;-71
2022/07/25 04:08:50;;;;;;;12.75;8.68;;;;;;;28.48;44.33;100819.31;5029116;28;20060;-71
2022/07/25 04:11:15;;;;;;;11.70;8.25;;;;;;;28.70;43.22;100814.50;5028795;28;20061;-71
2022/07/25 04:13:41;;;;;;;10.38;9.18;;;;;;;28.75;43.22;100815.09;5029327;28;20029;-71
2022/07/25 04:16:06;;;;;;;11.05;9.30;;;;;;;28.80;43.78;100814.84;5030816;28;20107;-70
2022/07/25 04:18:32;;;;;;;12.60;9.88;;;;;;;28.80;43.46;100803.78;5028758;28;20067;-71
2022/07/25 04:20:57;;;;;;;11.75;9.23;;;;;;;28.92;43.27;100805.69;5028473;28;20046;-69
2022/07/25 04:23:23;;;;;;;11.90;9.52;;;;;;;28.85;43.03;100809.09;5028774;28;20185;-72
2022/07/25 04:25:48;;;;;;;10.65;9.02;;;;;;;28.88;43.37;100808.38;5028893;28;20533;-69
2022/07/25 04:28:14;;;;;;;12.77;9.13;;;;;;;28.82;43.08;100811.72;5029468;28;20359;-71
2022/07/25 04:30:39;;;;;;;18.73;10.95;;;;;;;28.89;43.23;100807.22;5046833;28;20052;-71
2022/07/25 04:33:05;;;;;;;10.68;9.60;;;;;;;29.08;42.91;100801.88;5048802;28;20041;-69
2022/07/25 04:35:30;;;;;;;14.35;10.40;;;;;;;28.98;42.96;100807.06;5048861;28;20059;-70
2022/07/25 04:37:55;;;;;;;14.02;10.15;;;;;;;28.97;43.23;100797.97;5042577;28;20049;-70
2022/07/25 04:40:21;;;;;;;15.13;10.60;;;;;;;29.12;42.87;100785.38;5029185;28;20036;-70
2022/07/25 04:42:47;;;;;;;13.15;11.00;;;;;;;29.12;43.28;100786.19;5010985;28;20026;-71
2022/07/25 04:45:12;;;;;;;12.02;10.35;;;;;;;29.13;43.20;100784.22;5028495;28;20405;-69
2022/07/25 04:47:38;;;;;;;16.63;11.25;;;;;;;29.24;42.17;100779.81;5028653;28;20068;-69
2022/07/25 04:50:03;;;;;;;18.83;12.35;;;;;;;29.24;42.19;100785.38;5028318;28;20041;-71
2022/07/25 04:52:29;;;;;;;13.10;11.02;;;;;;;29.28;42.36;100781.56;5028850;28;20037;-70
2022/07/25 04:54:54;;;;;;;12.55;11.00;;;;;;;29.09;42.97;100788.84;5028686;28;20516;-72
2022/07/25 04:57:20;;;;;;;13.48;11.07;;;;;;;29.25;41.98;100786.97;5011220;28;20107;-71
2022/07/25 04:59:45;;;;;;;13.68;11.20;;;;;;;29.39;41.93;100790.97;5010306;28;20394;-70
2022/07/25 05:02:11;;;;;;;15.32;12.13;;;;;;;29.45;41.92;100786.78;5030846;28;20041;-71
2022/07/25 05:04:36;;;;;;;13.82;11.15;;;;;;;29.43;42.35;100786.31;5021971;28;20493;-70
2022/07/25 05:07:02;;;;;;;15.13;11.07;;;;;;;29.52;42.49;100784.19;5011779;28;20034;-70
2022/07/25 05:09:27;;;;;;;14.68;11.48;;;;;;;29.55;42.47;100777.16;5012051;28;20030;-72
2022/07/25 05:11:53;;;;;;;14.77;11.80;;;;;;;29.44;42.46;100782.38;5010806;28;20037;-70
2022/07/25 05:14:18;;;;;;;11.93;10.48;;;;;;;29.31;43.11;100783.59;5012605;28;20038;-70
2022/07/25 05:16:43;;;;;;;15.75;10.73;;;;;;;29.14;43.49;100792.22;5011748;28;20038;-67
2022/07/25 05:19:09;;;;;;;15.95;10.93;;;;;;;28.93;44.70;100791.53;5012665;28;20033;-66
2022/07/25 05:21:34;;;;;;;14.48;11.52;;;;;;;28.96;44.49;100799.13;5012579;28;20043;-66
2022/07/25 05:24:00;;;;;;;15.85;12.10;;;;;;;29.12;44.30;100791.72;5031634;28;20547;-65
2022/07/25 05:26:25;;;;;;;19.27;12.25;;;;;;;28.98;44.17;100791.28;5031611;28;20041;-68
2022/07/25 05:28:50;;;;;;;15.45;11.07;;;;;;;29.09;44.08;100786.09;5031818;28;20577;-66
2022/07/25 05:31:16;;;;;;;15.57;11.48;;;;;;;29.21;43.15;100781.31;5031916;28;20026;-67
2022/07/25 05:33:41;;;;;;;14.63;11.90;;;;;;;29.27;43.21;100779.09;5031222;28;20583;-69
2022/07/25 05:36:07;;;;;;;12.50;11.15;;;;;;;29.43;43.03;100777.19;5031576;28;20045;-66
2022/07/25 05:38:33;;;;;;;15.75;12.02;;;;;;;29.41;43.37;100777.56;5031166;28;20045;-66
2022/07/25 05:40:59;;;;;;;15.68;12.98;;;;;;;29.36;43.66;100779.78;5031186;28;20100;-66
2022/07/25 05:43:24;;;;;;;14.32;11.98;;;;;;;29.58;42.61;100784.78;5032076;28;20029;-67
2022/07/25 05:45:50;;;;;;;17.58;12.05;;;;;;;29.43;42.99;100779.97;5031488;28;20041;-68
2022/07/25 05:48:16;;;;;;;13.00;11.57;;;;;;;29.52;42.31;100782.59;5031322;28;20076;-67
2022/07/25 05:50:41;;;;;;;14.00;11.02;;;;;;;29.67;42.15;100788.19;5031019;28;20056;-68
2022/07/25 05:53:07;;;;;;;15.63;11.15;;;;;;;29.69;42.35;100782.28;5031069;28;20056;-68
2022/07/25 05:55:32;;;;;;;14.23;11.00;;;;;;;29.64;42.51;100780.56;5030961;28;20029;-67
2022/07/25 05:57:58;;;;;;;14.20;10.80;;;;;;;29.75;42.08;100764.25;5031525;28;20029;-66
2022/07/25 06:00:24;;;;;;;13.25;11.13;;;;;;;29.82;42.17;100750.63;5030932;28;20069;-67
2022/07/25 06:02:49;;;;;;;17.88;11.88;;;;;;;29.81;42.19;100763.66;5031428;28;20095;-67
2022/07/25 06:05:14;;;;;;;16.58;11.85;;;;;;;29.68;42.16;100770.38;5015968;28;20128;-68
2022/07/25 06:07:40;;;;;;;16.98;11.85;;;;;;;29.48;42.54;100763.91;5010899;28;20028;-67
2022/07/25 06:10:06;;;;;;;13.32;11.10;;;;;;;29.60;42.41;100771.38;5011371;28;20357;-67
2022/07/25 06:12:32;;;;;;;16.98;11.20;;;;;;;29.87;41.86;100778.06;5009664;28;20038;-65
2022/07/25 06:15:01;;;;;;;12.40;10.90;;;;;;;30.00;41.30;100779.56;5027511;28;20409;-67
2022/07/25 06:17:26;;;;;;;12.75;11.45;;;;;;;29.89;41.78;100775.72;5030173;28;20034;-68
2022/07/25 06:19:52;;;;;;;13.68;11.70;;;;;;;30.01;41.60;100783.97;5030075;28;20063;-67
2022/07/25 06:22:18;;;;;;;16.25;11.27;;;;;;;30.14;41.10;100777.16;5031294;28;20021;-65
2022/07/25 06:24:44;;;;;;;15.35;11.57;;;;;;;30.28;40.74;100778.38;5029877;28;20045;-67
2022/07/25 06:27:10;;;;;;;15.70;11.07;;;;;;;30.31;40.81;100780.41;5026496;28;20555;-67
2022/07/25 06:29:37;;;;;;;13.50;11.32;;;;;;;30.54;40.68;100791.69;5028253;28;20072;-67
2022/07/25 06:32:03;;;;;;;13.93;10.48;;;;;;;30.71;40.37;100785.72;5027981;28;20444;-68
2022/07/25 06:34:28;;;;;;;11.93;10.63;;;;;;;30.79;40.20;100789.47;5029167;28;20033;-68
2022/07/25 06:36:56;;;;;;;16.50;11.00;;;;;;;30.79;40.19;100786.69;5028615;28;20545;-68
2022/07/25 06:39:21;;;;;;;11.63;9.23;;;;;;;30.79;40.04;100783.91;5028844;28;20060;-69
2022/07/25 06:41:47;;;;;;;9.63;6.65;;;;;;;30.28;39.85;100788.66;5029008;28;20149;-69
2022/07/25 06:44:12;;;;;;;9.32;6.97;;;;;;;30.43;38.69;100787.81;5028562;28;20034;-69
2022/07/25 06:46:37;;;;;;;10.75;6.72;;;;;;;30.86;37.79;100795.22;5028677;28;20057;-68
2022/07/25 06:49:03;;;;;;;11.93;7.00;;;;;;;29.63;39.72;100789.22;5028714;28;20021;-70
2022/07/25 06:51:28;;;;;;;11.10;6.72;;;;;;;29.93;39.31;100782.97;5028857;28;20042;-67
2022/07/25 06:53:55;;;;;;;10.30;7.38;;;;;;;30.12;39.07;100787.81;5028716;28;20064;-70
2022/07/25 06:56:21;;;;;;;12.05;7.47;;;;;;;29.85;39.19;100783.97;5026032;28;20564;-69
2022/07/25 06:58:46;;;;;;;8.18;7.30;;;;;;;30.37;38.34;100792.03;5028284;28;20117;-70
2022/07/25 07:01:11;;;;;;;11.85;8.00;;;;;;;30.13;38.53;100795.75;5010263;28;20041;-68
2022/07/25 07:03:38;;;;;;;9.52;7.75;;;;;;;29.65;39.72;100793.25;5026533;28;20030;-68
2022/07/25 07:06:05;;;;;;;10.68;7.70;;;;;;;30.59;38.00;100796.13;5026882;28;20422;-69
2022/07/25 07:08:30;;;;;;;10.88;7.50;;;;;;;29.73;38.60;100795.09;5029735;28;20505;-71
2022/07/25 07:10:56;;;;;;;12.77;8.82;;;;;;;29.28;39.89;100797.34;5028859;28;20148;-67
2022/07/25 07:13:22;;;;;;;13.75;7.65;;;;;;;30.25;38.05;100790.13;5030440;28;20040;-68
2022/07/25 07:15:49;;;;;;;12.60;9.00;;;;;;;30.06;38.06;100792.81;5029260;28;20037;-69
2022/07/25 07:18:15;;;;;;;15.07;8.65;;;;;;;29.80;38.89;100809.13;5029007;28;20033;-69
2022/07/25 07:20:41;;;;;;;13.35;9.15;;;;;;;29.78;39.41;100797.59;5028807;28;20045;-69
2022/07/25 07:23:07;;;;;;;10.48;8.32;;;;;;;30.27;38.45;100796.13;5029078;28;20040;-69
2022/07/25 07:25:33;;;;;;;13.27;8.15;;;;;;;30.55;38.06;100798.00;5028452;28;20049;-70
2022/07/25 07:27:58;;;;;;;9.82;7.55;;;;;;;30.09;38.72;100799.63;5029384;28;20112;-69
2022/07/25 07:30:24;;;;;;;9.48;7.68;;;;;;;30.77;37.41;100787.06;5029062;28;20132;-69
2022/07/25 07:32:49;;;;;;;13.48;8.25;;;;;;;31.10;37.18;100792.97;5029466;28;20053;-71
2022/07/25 07:35:15;;;;;;;10.70;7.00;;;;;;;31.33;36.71;100770.03;5028663;28;20057;-67
2022/07/25 07:37:42;;;;;;;7.68;5.95;;;;;;;31.90;35.29;100765.22;5028996;28;20025;-67
2022/07/25 07:40:08;;;;;;;9.77;6.30;;;;;;;30.11;36.97;100767.59;5029075;28;20029;-67
2022/07/25 07:42:38;;;;;;;8.50;6.07;;;;;;;30.25;36.38;100767.94;5028717;28;20052;-68
2022/07/25 07:45:10;;;;;;;6.05;5.18;;;;;;;30.92;35.74;100791.78;5026413;28;20053;-67
2022/07/25 07:47:35;;;;;;;9.23;5.03;;;;;;;30.64;36.16;100766.16;5028766;28;20037;-68
2022/07/25 07:50:00;;;;;;;8.73;5.72;;;;;;;30.89;35.64;100766.72;5026056;28;20040;-69
2022/07/25 07:52:26;;;;;;;5.95;4.82;;;;;;;30.66;35.79;100766.59;5029282;28;20347;-69
2022/07/25 07:57:35;;;;;;;8.27;3.78;;;;;;;31.43;34.48;100775.81;5028166;28;20032;-69
2022/07/25 08:00:00;;;;;;;7.65;3.33;;;;;;;31.38;34.35;100772.53;5025920;28;20033;-68
2022/07/25 08:02:26;;;;;;;5.68;3.40;;;;;;;31.85;33.15;100779.44;5028549;28;20048;-68
2022/07/25 08:04:51;;;;;;;7.13;3.70;;;;;;;32.01;33.08;100776.56;5029015;28;20041;-68
2022/07/25 08:07:16;;;;;;;9.38;3.53;;;;;;;32.09;33.21;100769.94;5028889;28;20040;-68
2022/07/25 08:09:42;;;;;;;4.07;3.35;;;;;;;32.04;33.88;100769.47;5028373;28;20033;-68
2022/07/25 08:12:07;;;;;;;6.05;4.10;;;;;;;32.08;33.11;100767.53;5028417;28;20575;-68
2022/07/25 08:14:33;;;;;;;3.55;3.17;;;;;;;31.79;32.65;100772.56;5028725;28;20056;-68
2022/07/25 08:16:58;;;;;;;6.28;3.28;;;;;;;31.77;33.03;100771.31;5028608;28;20050;-69
2022/07/25 08:19:23;;;;;;;4.97;3.03;;;;;;;31.78;33.78;100778.50;5028971;28;20021;-70
2022/07/25 08:21:49;;;;;;;5.95;3.10;;;;;;;31.60;34.47;100786.50;5028746;28;20048;-68
2022/07/25 08:24:14;;;;;;;3.38;2.80;;;;;;;31.96;33.93;100783.22;5028003;28;20042;-69
2022/07/25 08:26:39;;;;;;;3.78;2.65;;;;;;;31.54;33.43;100771.31;5028543;28;20030;-70
2022/07/25 08:29:05;;;;;;;2.95;2.13;;;;;;;31.13;33.37;100761.69;5028302;28;20096;-68
2022/07/25 08:31:30;;;;;;;4.00;2.63;;;;;;;30.62;34.07;100767.66;5025910;28;20021;-70
2022/07/25 08:33:56;;;;;;;2.85;2.38;;;;;;;30.91;33.63;100770.75;5022858;28;20049;-68
2022/07/25 08:36:21;;;;;;;5.03;2.60;;;;;;;31.21;33.60;100765.44;5026887;28;20485;-67
2022/07/25 08:38:47;;;;;;;9.80;3.30;;;;;;;31.87;32.21;100762.38;5030762;28;20033;-70
2022/07/25 08:41:12;;;;;;;4.65;2.50;;;;;;;31.73;32.84;100767.66;5028674;28;20060;-67
2022/07/25 08:43:38;;;;;;;11.88;3.55;;;;;;;31.53;33.27;100774.44;5029522;28;20018;-68
2022/07/25 08:46:04;;;;;;;4.20;2.00;;;;;;;31.64;33.03;100779.03;5029224;28;20025;-68
2022/07/25 08:48:30;;;;;;;6.40;2.60;;;;;;;31.34;33.56;100788.31;5028058;28;20060;-69
2022/07/25 08:50:56;;;;;;;4.47;2.33;;;;;;;31.29;33.48;100796.94;5029373;28;20089;-69
2022/07/25 08:53:23;;;;;;;7.70;2.50;;;;;;;31.61;33.94;100799.22;5029191;28;20034;-70
2022/07/25 08:55:49;;;;;;;3.53;2.40;;;;;;;31.61;32.85;100793.66;5010363;28;20547;-67
2022/07/25 08:58:17;;;;;;;5.45;2.50;;;;;;;32.16;32.54;100800.66;5029848;28;20014;-67
2022/07/25 09:00:43;;;;;;;4.78;2.28;;;;;;;31.67;32.94;100794.97;5028650;28;20040;-67
2022/07/25 09:03:09;;;;;;;3.10;2.10;;;;;;;31.43;33.95;100798.06;5028207;28;20045;-68
2022/07/25 09:05:36;;;;;;;2.67;2.22;;;;;;;31.03;34.89;100803.13;5028510;28;20095;-67
2022/07/25 09:08:16;;;;;;;3.67;2.35;;;;;;;31.55;33.89;100800.69;5028220;28;20030;-69
2022/07/25 09:10:49;;;;;;;;;;;;;;;31.85;33.37;100798.06;5026617;28;20028;-67
2022/07/25 09:13:15;;;;;;;3.88;1.75;;;;;;;31.92;33.19;100792.69;5028627;28;19952;-69
2022/07/25 09:15:47;;;;;;;7.18;1.75;;;;;;;31.99;32.63;100784.47;5028209;28;20521;-68
2022/07/25 09:18:15;;;;;;;2.20;1.50;;;;;;;32.83;31.95;100793.41;5028777;28;20067;-71
2022/07/25 09:20:52;;;;;;;3.42;1.75;;;;;;;31.91;33.11;100800.22;5028448;28;20037;-69
2022/07/25 09:23:33;;;;;;;5.03;2.22;;;;;;;31.66;34.33;100807.25;5029448;28;20030;-69
2022/07/25 09:26:08;;;;;;;5.82;1.85;;;;;;;31.63;34.08;100799.66;5028863;28;20061;-70
2022/07/25 09:28:48;;;;;;;3.03;1.77;;;;;;;31.26;35.59;100817.91;5029266;28;20083;-71
2022/07/25 09:31:16;;;;;;;3.88;1.83;;;;;;;30.24;40.82;100823.78;5027281;28;20547;-70
2022/07/25 09:33:50;;;;;;;5.55;2.00;;;;;;;29.74;42.82;100829.94;5022351;28;20121;-70
2022/07/25 09:36:16;;;;;;;4.38;1.80;;;;;;;30.23;42.11;100827.72;5008294;28;20038;-69
2022/07/25 09:38:56;;;;;;;2.95;2.00;;;;;;;30.42;41.94;100832.56;5008676;28;21154;-72
2022/07/25 09:41:31;;;;;;;6.47;3.00;;;;;;;30.29;41.72;100829.88;5008506;28;20050;-69
2022/07/25 09:43:57;;;;;;;2.20;1.70;;;;;;;30.79;42.07;100826.34;5008408;28;20435;-69
2022/07/25 09:46:29;;;;;;;1.67;1.42;;;;;;;30.74;42.09;100831.38;5009179;28;20045;-66
2022/07/25 09:48:57;;;;;;;2.33;1.30;;;;;;;31.29;40.49;100844.16;5008824;28;20049;-70
2022/07/25 09:51:24;;;;;;;3.38;1.63;;;;;;;31.60;40.11;100830.97;5008181;28;20046;-70
2022/07/25 09:53:49;;;;;;;2.72;1.40;;;;;;;30.54;40.43;100835.25;5009022;28;20141;-70
2022/07/25 09:56:15;;;;;;;6.03;3.03;;;;;;;31.07;40.07;100823.44;5024434;28;20077;-69
2022/07/25 09:58:40;;;;;;;8.50;1.95;;;;;;;31.02;39.04;100823.72;5027537;28;20034;-70
2022/07/25 10:01:06;;;;;;;2.08;1.45;;;;;;;30.84;39.95;100825.31;5028296;28;20041;-72
2022/07/25 10:03:40;;;;;;;13.52;1.70;;;;;;;30.87;39.66;100821.78;5026373;28;20034;-71
2022/07/25 10:06:28;;;;;;;3.05;1.23;;;;;;;30.59;40.77;100819.13;5007421;28;20049;-70
2022/07/25 10:08:53;;;;;;;1.13;1.00;;;;;;;30.36;40.79;100820.13;5006307;28;20033;-70
2022/07/25 10:11:21;;;;;;;2.53;0.90;;;;;;;30.31;40.58;100829.50;5007750;28;20041;-70
2022/07/25 10:13:47;;;;;;;2.05;0.85;;;;;;;30.21;40.54;100836.38;5007692;28;20576;-69
2022/07/25 10:16:18;;;;;;;1.50;1.05;;;;;;;29.89;41.50;100831.16;5019815;28;20077;-70
2022/07/25 10:18:52;;;;;;;3.45;1.10;;;;;;;30.25;41.21;100826.19;5027554;28;20771;-71
2022/07/25 10:21:19;;;;;;;2.63;1.00;;;;;;;30.53;40.63;100839.16;5025002;28;20042;-73
2022/07/25 10:23:45;;;;;;;2.67;0.90;;;;;;;30.28;40.18;100833.84;5024604;28;20054;-69
2022/07/25 10:26:18;;;;;;;1.35;0.70;;;;;;;29.31;40.94;100841.75;5025580;28;20060;-67
2022/07/25 10:28:49;;;;;;;5.53;1.10;;;;;;;29.40;39.54;100836.06;5025288;28;20021;-70
2022/07/25 10:31:16;;;;;;;6.43;1.30;;;;;;;28.74;40.58;100848.63;5026531;28;20245;-67
2022/07/25 10:33:42;;;;;;;1.98;0.93;;;;;;;29.35;40.01;100844.63;5026093;28;20361;-72
2022/07/25 10:36:09;;;;;;;2.80;0.90;;;;;;;29.85;38.74;100856.00;5027261;28;20045;-70
2022/07/25 10:38:41;;;;;;;4.97;0.90;;;;;;;30.26;38.14;100874.94;5026007;28;20046;-74
2022/07/25 10:41:09;;;;;;;2.58;1.13;;;;;;;30.82;37.79;100866.47;5025908;28;20041;-71
2022/07/25 10:43:39;;;;;;;2.00;0.90;;;;;;;32.10;35.36;100868.88;5026089;28;20489;-70
2022/07/25 10:46:13;;;;;;;3.75;1.27;;;;;;;30.69;36.90;100867.72;5027366;28;20037;-72
2022/07/25 10:48:39;;;;;;;3.50;1.20;;;;;;;31.21;37.02;100870.97;5027303;28;20584;-71
2022/07/25 10:51:12;;;;;;;3.95;1.48;;;;;;;31.24;37.97;100875.78;5026841;28;20442;-71
2022/07/25 10:53:43;;;;;;;6.28;1.40;;;;;;;31.29;38.38;100878.28;5026373;28;20095;-70
2022/07/25 10:56:13;;;;;;;3.25;1.10;;;;;;;31.35;37.41;100887.16;5026286;28;20493;-73
2022/07/25 10:58:52;;;;;;;5.53;1.00;;;;;;;31.55;37.02;100880.44;5025855;28;20068;-71
2022/07/25 11:01:29;;;;;;;5.07;1.38;;;;;;;31.22;37.72;100871.75;5026821;28;20026;-72
2022/07/25 11:04:02;;;;;;;4.28;1.13;;;;;;;31.31;38.29;100875.97;5026360;28;20056;-71
2022/07/25 11:06:39;;;;;;;5.40;1.73;;;;;;;31.63;37.57;100890.53;5022237;28;20045;-72
2022/07/25 11:09:13;;;;;;;4.47;1.13;;;;;;;31.21;38.86;100898.75;5006677;28;20048;-72
2022/07/25 11:11:42;;;;;;;4.05;1.25;;;;;;;31.23;38.58;100890.03;5026259;28;20132;-73
2022/07/25 11:14:15;;;;;;;4.72;1.77;;;;;;;31.18;38.86;100883.59;5026040;28;20045;-72
2022/07/25 11:16:42;;;;;;;5.97;1.33;;;;;;;30.75;39.79;100883.75;5025851;28;20271;-70
2022/07/25 11:19:27;;;;;;;5.43;1.30;;;;;;;30.31;40.65;100874.69;5027061;28;20477;-70
2022/07/25 11:21:57;;;;;;;4.57;1.65;;;;;;;30.37;40.79;100880.78;5026422;28;20105;-72